Tuesday, September 16, 2014
17:35 UTC
  |  Log In   |  Register Free
Airport Search:

South Big Horn County Airport
(KGEY)

South Big Horn County Airport Diagram
No Airport Diagram Available

FAA data valid effective July 24, 2014 until September 18, 2014 (unless otherwise noted).

 
 
 
 
 
 
 
 
 
 
 
 
 
 

Current Aviation Weather for South Big Horn County Airport (KGEY)

The most recent METAR observation for KGEY was updated at: 1715
METAR Summary (Translated METAR)
KGEY
161653Z AUTO VRB04KT 10SM CLR 18/07 A3008 RMK AO2 SLP166 T01830067
KWRL
161653Z AUTO 27003KT 10SM CLR 18/07 A3009 RMK AO2 SLP164 T01830067
(33.8 nm SE from KGEY)
KPOY
161655Z AUTO 11008KT 10SM CLR 19/01 A3012 RMK AO2
(36.8 nm NW from KGEY)
TAF Summary (Translated TAF)
KWRL
(33.8 nm SE from KGEY)
161122Z 1612/1712 VRB05KT P6SM FEW120 FM162200 36006KT P6SM SCT120 SCT150 FM170300 VRB05KT P6SM SCT120
  Airport Weather Conditions for KGEY

Current weather conditions are
not available for GEY


The nearest NOAA weather station
is at WRL, (33.8 nm SE from GEY)
  
 Current Weather at WRL
65° F
Fair
West winds at 3.5 mph
WRL NOAA Radar

Pressure: 30.09 in
Humidity: 47%
Wind: West at 3.5 MPH (3 KT)
Dew Point: 44.1°F
Visibility: 10.00 mi


Airport Weather Forecast for KGEY

Translated METAR and TAF for KGEY
Translated METAR for KGEY (1729 UTC 16 September 2014)
found at http://aviationweather.gov/adds/metars/
 
METAR text: KGEY 161653Z AUTO VRB04KT 10SM CLR 18/07 A3008 RMK AO2 SLP166 T01830067
Conditions at: KGEY (GREYBULL , WY, US) observed 1653 UTC 16 September 2014
Temperature: 18.3°C (65°F)
Dewpoint: 6.7°C (44°F) [RH = 47%]
Pressure (altimeter): 30.08 inches Hg (1018.7 mb)
[Sea-level pressure: 1016.6 mb]
Winds: variable direction winds at 5 MPH (4 knots; 2.1 m/s)
Visibility: 10 or more miles (16+ km)
Ceiling: at least 12,000 feet AGL
Clouds: sky clear below 12,000 feet AGL
Weather: automated observation with no human augmentation;
there may or may not be significant weather present at this time
Translated TAF for KGEY

There is no translated TAF available for this airport

Find All Airport Services Find A Hotel Find A Rental Car Find A Golf Course Find A Restaurant $100 Hamburger



FBO's on the Field
FBO Company Facility Photos Services Transportation Aviation Fuel Prices: Prices include tax
Catering Weather Repair Courtesy Rental Type 100LL JetA JetA+ MOGAS 8087
 
B & G Industries, LLC

This FBO has not yet been rated
FS:Independent
Last Updated: Sep-05
Login to update fuel prices
SS:
Contact B & G Industries, LLCMore FBO Information
 
South Big Horn County Airport

This FBO has not yet been rated
FS:Independent
Last Updated: Sep-12
Login to update fuel prices
SS:
Contact South Big Horn County AirportMore FBO Information
 
Add another FBO Facility Photos Catering Weather Repair Courtesy Rental Type 100LL JetA JetA+ MOGAS 8087
Services Transportation Aviation Fuel Prices: Prices include tax


model-print
model-print
model-print
model-print